메인 페이지
METAR-TAF:

METAR-TAF

공항 :

캘거리 국제공항

캘거리, 앨버타, 캐나다

위도: 51-07N, 경도: 114-01W, 고도: 1077m

현재 날씨관측

예보는 10분 전, 10:26시(UTC)에 발표되었습니다.
3kt남서풍과 북북동풍을 오가는
온도 2°C
습도 47%
기압 993 hPa
시정: 24.1km
고도 21000ft 상공 구름 보통

METAR: CYYC 151026Z 35003KT 230V020 15SM SCT210 02/M08 A2933 RMK CI4 SLP966 DENSITY ALT 3700FT

시각: 03:36 (10:36 UTC)

예보

예보는 1 시간 58분 전, 08:38시(UTC)에 발표되었습니다.
예보 대상 시간: 15일 09시부터 16일 06시까지 (UTC)
남남서12kt, 순간 최대 풍속 22kt
시정: 10km
고도 22000ft 상공 구름 조금
15일 1200시부터 (UTC)
서남서15kt, 순간 최대 풍속 25kt
시정: 10km
맑음
전환 중
15일 14시부터 15일 16시까지 (UTC)
서남서12kt
15일 2200시부터 (UTC)
남서8kt
시정: 10km
맑음
전환 중
16일 02시부터 16일 04시까지 (UTC)
동남동6kt

TAF: CYYC 150838Z 1509/1606 20012G22KT P6SM FEW220 FM151200 24015G25KT P6SM SKC BECMG 1514/1516 24012KT FM152200 22008KT P6SM SKC BECMG 1602/1604 12006KT RMK NXT FCST BY 151200Z

4,000개 이상의 공항 관측 자료 및 예보 (METAR 및 TAF 보고).

지도상에서 검색 가능한 기상관측소가 노란 점과 빨간 점으로 표시되어 있습니다.

기상관측소 명을 보려면 표시 위로 마우스를 이동하세요.

날씨 관측과 예보를 보려면 클릭하세요.

지도 변경 : 확대하려면 엑스 표시가 있는 녹색 버튼, 축소하려면 빼기 표시가 있는 녹색 버튼, 다음 페이지의 지도를 보려면 녹색 화살표를 클릭하세요.


METAR-TAF: